This is the latest recevied weather packets stored in our database for station/object AC5CM. If no packets are shown the sender has not sent any weather packets the latest 10 day(s).
| Time | Temp. | Humidity | Pressure | Rain* | Wind** | Luminosity | Snow |
|---|---|---|---|---|---|---|---|
| 1777927527 | 27.22° C | 58% | 1013.4 hPa | 0 mm | - | - | - |
| 1777927226 | 26.67° C | 60% | 1013.6 hPa | 0 mm | - | - | - |
| 1777926923 | 27.78° C | 57% | 1013.7 hPa | 0 mm | - | - | - |
| 1777926621 | 27.22° C | 58% | 1013.5 hPa | 0 mm | - | - | - |
| 1777926316 | 27.22° C | 58% | 1013.7 hPa | 0 mm | - | - | - |
| 1777926013 | 26.67° C | 58% | 1014 hPa | 0 mm | - | - | - |
| 1777925710 | 26.67° C | 58% | 1013.8 hPa | 0 mm | - | - | - |
| 1777925408 | 27.22° C | 58% | 1013.9 hPa | 0 mm | - | - | - |
| 1777925104 | 27.78° C | 55% | 1013.9 hPa | 0 mm | - | - | - |
| 1777924801 | 27.78° C | 55% | 1014 hPa | 0 mm | - | - | - |
| 1777924497 | 27.78° C | 54% | 1014.1 hPa | 0 mm | - | - | - |
| 1777924194 | 27.78° C | 57% | 1014.1 hPa | 0 mm | - | - | - |
| 1777923890 | 28.33° C | 54% | 1014.2 hPa | 0 mm | - | - | - |
| 1777923585 | 28.33° C | 54% | 1014.2 hPa | 0 mm | - | - | - |
| 1777923283 | 28.33° C | 52% | 1014.3 hPa | 0 mm | - | - | - |
| 1777922982 | 28.33° C | 54% | 1014.3 hPa | 0 mm | - | - | - |
| 1777922678 | 27.78° C | 54% | 1014.4 hPa | 0 mm | - | - | - |
| 1777922377 | 28.89° C | 54% | 1014.5 hPa | 0 mm | - | - | - |
| 1777922075 | 27.78° C | 55% | 1014.5 hPa | 0 mm | - | - | - |
| 1777921770 | 27.78° C | 57% | 1014.5 hPa | 0 mm | - | - | - |
| 1777921466 | 28.33° C | 54% | 1014.4 hPa | 0 mm | - | - | - |
| 1777921163 | 28.33° C | 52% | 1014.5 hPa | 0 mm | - | - | - |
| 1777920860 | 27.78° C | 55% | 1014.9 hPa | 0 mm | - | - | - |
| 1777920556 | 27.78° C | 54% | 1014.6 hPa | 0 mm | - | - | - |
| 1777920252 | 28.33° C | 54% | 1014.8 hPa | 0 mm | - | - | - |
* Rain latest hour (hover to see other rain measurements)
** Current wind speed in m/s (hover to see current wind gust speed)